Time;durP1;ratioP1;P1;durP2;ratioP2;P2;SDS_P1;SDS_P2;PMS_P1;PMS_P2;Temp;Humidity;BMP_temperature;BMP_pressure;BME280_temperature;BME280_humidity;BME280_pressure;Samples;Min_cycle;Max_cycle;Signal;HPM_P1;HPM_P2
2023/09/05 00:00:45;;;;;;;6.22;5.45;;;18.70;99.90;;;;;;5028391;28;37659;-78
2023/09/05 00:03:11;;;;;;;5.65;4.72;;;18.70;99.90;;;;;;5055417;28;37737;-78
2023/09/05 00:05:38;;;;;;;5.88;4.88;;;18.70;99.90;;;;;;5054518;28;37218;-78
2023/09/05 00:08:04;;;;;;;6.43;4.72;;;18.70;99.90;;;;;;5053723;28;38638;-78
2023/09/05 00:10:30;;;;;;;5.30;4.43;;;18.70;99.90;;;;;;5054185;28;38353;-78
2023/09/05 00:12:56;;;;;;;8.43;5.28;;;18.70;99.90;;;;;;5059370;28;37801;-78
2023/09/05 00:15:22;;;;;;;7.95;5.03;;;18.70;99.90;;;;;;5057753;28;36344;-78
2023/09/05 00:17:48;;;;;;;5.50;4.90;;;18.60;99.90;;;;;;5058087;28;38175;-78
2023/09/05 00:20:15;;;;;;;5.45;4.70;;;18.60;99.90;;;;;;5061350;28;37189;-78
2023/09/05 00:22:43;;;;;;;6.47;5.10;;;18.60;99.90;;;;;;5065688;28;36648;-79
2023/09/05 00:25:11;;;;;;;6.75;5.00;;;18.50;99.90;;;;;;5062449;28;37670;-78
2023/09/05 00:27:39;;;;;;;8.75;5.55;;;18.50;99.90;;;;;;5065955;28;39570;-77
2023/09/05 00:30:06;;;;;;;6.38;5.45;;;18.50;99.90;;;;;;5057912;28;37233;-78
2023/09/05 00:32:33;;;;;;;7.80;5.13;;;18.50;99.90;;;;;;5060899;28;47091;-78
2023/09/05 00:34:59;;;;;;;5.65;4.75;;;18.50;99.90;;;;;;5057861;28;37742;-80
2023/09/05 00:37:25;;;;;;;5.43;4.93;;;18.50;99.90;;;;;;5057839;28;37628;-79
2023/09/05 00:39:51;;;;;;;6.20;5.45;;;18.40;99.90;;;;;;5055835;28;37595;-79
2023/09/05 00:42:17;;;;;;;6.10;5.50;;;18.30;99.90;;;;;;5060466;28;37809;-77
2023/09/05 00:44:49;;;;;;;7.05;5.40;;;18.30;99.90;;;;;;5054039;28;37008;-78
2023/09/05 00:47:15;;;;;;;7.75;5.47;;;18.30;99.90;;;;;;5061760;28;39298;-78
2023/09/05 00:49:47;;;;;;;7.50;5.47;;;18.20;99.90;;;;;;5056310;28;37266;-78
2023/09/05 00:52:14;;;;;;;7.93;6.03;;;18.20;99.90;;;;;;5059042;28;37500;-78
2023/09/05 00:54:41;;;;;;;6.07;5.35;;;18.30;99.90;;;;;;5053020;28;36077;-78
2023/09/05 00:57:11;;;;;;;7.88;5.95;;;18.20;99.90;;;;;;5050513;28;37925;-78
2023/09/05 00:59:37;;;;;;;8.88;5.40;;;18.20;99.90;;;;;;5051895;28;37467;-77
2023/09/05 01:04:33;;;;;;;6.40;5.75;;;18.20;99.90;;;;;;5048708;28;20085;-81
2023/09/05 01:07:32;;;;;;;9.02;6.35;;;18.20;99.90;;;;;;5059661;28;39099;-80
2023/09/05 01:10:04;;;;;;;7.70;5.35;;;18.10;99.90;;;;;;5070952;28;47636;-81
2023/09/05 01:12:30;;;;;;;8.15;5.85;;;18.10;99.90;;;;;;5057486;28;47185;-80
2023/09/05 01:14:57;;;;;;;7.80;6.00;;;18.10;99.90;;;;;;5060402;28;36150;-80
2023/09/05 01:17:23;;;;;;;8.77;6.32;;;18.10;99.90;;;;;;5067332;28;37495;-81
2023/09/05 01:19:53;;;;;;;7.82;6.32;;;18.10;99.90;;;;;;5050124;28;37323;-81
2023/09/05 01:22:29;;;;;;;7.13;6.43;;;18.00;99.90;;;;;;5053508;28;37773;-79
2023/09/05 01:24:56;;;;;;;6.80;6.10;;;17.90;99.90;;;;;;5060336;28;35331;-80
2023/09/05 01:27:26;;;;;;;7.60;5.53;;;17.90;99.90;;;;;;5057152;28;38711;-80
2023/09/05 01:29:53;;;;;;;7.53;6.68;;;17.90;99.90;;;;;;5057143;28;38392;-82
2023/09/05 01:32:20;;;;;;;10.07;6.28;;;17.80;99.90;;;;;;5051638;28;37624;-80
2023/09/05 01:34:47;;;;;;;9.00;6.25;;;17.90;99.90;;;;;;5062238;28;37610;-80
2023/09/05 01:37:15;;;;;;;6.85;6.15;;;17.90;99.90;;;;;;5052478;28;37990;-81
2023/09/05 01:39:42;;;;;;;6.43;5.80;;;17.90;99.90;;;;;;5058245;28;37690;-82
2023/09/05 01:42:08;;;;;;;7.65;6.78;;;17.90;99.90;;;;;;5053221;28;36932;-83
2023/09/05 01:44:36;;;;;;;6.65;6.00;;;17.90;99.90;;;;;;5052986;28;36013;-82
2023/09/05 01:47:03;;;;;;;6.90;6.05;;;17.80;99.90;;;;;;5053767;28;39507;-79
2023/09/05 01:49:29;;;;;;;8.00;7.20;;;17.80;99.90;;;;;;5059526;28;37344;-82
2023/09/05 01:51:55;;;;;;;8.63;6.65;;;17.80;99.90;;;;;;5053961;28;38316;-81
2023/09/05 01:54:22;;;;;;;8.85;6.95;;;17.80;99.90;;;;;;5053114;28;37278;-81
2023/09/05 01:56:48;;;;;;;8.30;7.00;;;17.80;99.90;;;;;;5055160;28;38029;-81
2023/09/05 01:59:15;;;;;;;7.55;6.45;;;17.80;99.90;;;;;;5054345;28;37749;-81
2023/09/05 02:01:41;;;;;;;10.18;7.38;;;17.70;99.90;;;;;;5077986;28;37959;-81
2023/09/05 02:04:07;;;;;;;7.35;6.40;;;17.70;99.90;;;;;;5055056;28;36105;-81
2023/09/05 02:06:33;;;;;;;11.20;7.10;;;17.70;99.90;;;;;;5060930;28;38066;-81
2023/09/05 02:08:59;;;;;;;7.63;6.82;;;17.80;99.90;;;;;;5048356;28;38931;-80
2023/09/05 02:11:25;;;;;;;8.73;7.32;;;17.70;99.90;;;;;;5051911;28;38429;-81
2023/09/05 02:13:51;;;;;;;8.70;7.63;;;17.70;99.90;;;;;;5058857;28;36368;-81
2023/09/05 02:16:24;;;;;;;7.82;7.03;;;17.70;99.90;;;;;;5069696;28;38897;-83
2023/09/05 02:18:51;;;;;;;11.95;7.85;;;17.70;99.90;;;;;;5061160;28;37199;-83
2023/09/05 02:21:17;;;;;;;8.13;7.10;;;17.70;99.90;;;;;;5062294;28;37392;-81
2023/09/05 02:23:44;;;;;;;9.13;7.72;;;17.60;99.90;;;;;;5069201;28;37043;-82
2023/09/05 02:26:11;;;;;;;10.77;7.45;;;17.60;99.90;;;;;;5062616;28;39247;-82
2023/09/05 02:28:37;;;;;;;8.50;7.70;;;17.50;99.90;;;;;;5078876;28;37804;-83
2023/09/05 02:31:07;;;;;;;8.93;7.50;;;17.50;99.90;;;;;;5053978;28;36664;-82
2023/09/05 02:33:36;;;;;;;11.68;7.93;;;17.50;99.90;;;;;;5053343;28;37378;-83
2023/09/05 02:36:09;;;;;;;8.55;7.68;;;17.50;99.90;;;;;;5055961;28;38630;-82
2023/09/05 02:38:37;;;;;;;9.00;8.05;;;17.40;99.90;;;;;;5059507;28;39139;-83
2023/09/05 02:41:03;;;;;;;9.20;7.97;;;17.40;99.90;;;;;;5069217;28;37740;-83
2023/09/05 02:43:29;;;;;;;8.70;7.85;;;17.40;99.90;;;;;;5051016;28;38551;-82
2023/09/05 02:45:56;;;;;;;9.18;7.93;;;17.30;99.90;;;;;;5074960;28;37740;-82
2023/09/05 02:48:22;;;;;;;8.88;7.97;;;17.20;99.90;;;;;;5053937;28;38340;-82
2023/09/05 02:50:48;;;;;;;8.65;7.53;;;17.20;99.90;;;;;;5057781;28;37828;-82
2023/09/05 02:53:14;;;;;;;9.15;8.25;;;17.20;99.90;;;;;;5064160;28;35992;-82
2023/09/05 02:55:44;;;;;;;8.35;7.43;;;17.20;99.90;;;;;;5066674;28;38241;-83
2023/09/05 02:58:10;;;;;;;9.48;8.45;;;17.20;99.90;;;;;;5072339;28;38688;-82
2023/09/05 03:00:36;;;;;;;9.27;7.70;;;17.20;99.90;;;;;;5066939;28;38724;-82
2023/09/05 03:03:02;;;;;;;8.40;7.53;;;17.20;99.90;;;;;;5058824;28;37206;-82
2023/09/05 03:05:28;;;;;;;9.23;8.23;;;17.20;99.90;;;;;;5059292;28;41040;-81
2023/09/05 03:07:55;;;;;;;9.07;7.70;;;17.10;99.90;;;;;;5052373;28;37127;-83
2023/09/05 03:10:21;;;;;;;8.82;7.93;;;17.20;99.90;;;;;;5052164;28;36435;-83
2023/09/05 03:12:47;;;;;;;9.35;8.40;;;17.10;99.90;;;;;;5065963;28;39174;-83
2023/09/05 03:15:18;;;;;;;8.98;8.07;;;17.10;99.90;;;;;;5066968;28;40495;-82
2023/09/05 03:17:45;;;;;;;8.82;7.47;;;17.10;99.90;;;;;;5065345;28;39377;-82
2023/09/05 03:20:12;;;;;;;8.98;7.47;;;17.00;99.90;;;;;;5075529;28;36788;-83
2023/09/05 03:22:38;;;;;;;9.65;7.63;;;17.00;99.90;;;;;;5064896;28;37340;-83
2023/09/05 03:25:04;;;;;;;7.93;7.13;;;17.00;99.90;;;;;;5066180;28;39028;-81
2023/09/05 03:27:30;;;;;;;8.23;7.35;;;17.00;99.90;;;;;;5069675;28;36926;-81
2023/09/05 03:29:56;;;;;;;9.65;8.65;;;16.90;99.90;;;;;;5060644;28;37420;-82
2023/09/05 03:32:22;;;;;;;9.43;8.18;;;16.80;99.90;;;;;;5062584;28;37558;-83
2023/09/05 03:34:51;;;;;;;7.90;7.10;;;16.80;99.90;;;;;;5054518;28;38349;-82
2023/09/05 03:37:17;;;;;;;10.43;7.85;;;16.70;99.90;;;;;;5053649;28;38296;-81
2023/09/05 03:39:43;;;;;;;9.85;7.75;;;16.70;99.90;;;;;;5056497;28;37685;-81
2023/09/05 03:42:12;;;;;;;9.43;7.60;;;16.60;99.90;;;;;;5053711;28;36335;-81
2023/09/05 03:44:38;;;;;;;10.35;7.70;;;16.50;99.90;;;;;;5054550;28;38529;-82
2023/09/05 03:47:04;;;;;;;7.85;7.10;;;16.50;99.90;;;;;;5057482;28;38256;-82
2023/09/05 03:49:30;;;;;;;10.70;7.85;;;16.40;99.90;;;;;;5057757;28;38469;-80
2023/09/05 03:51:57;;;;;;;9.88;8.07;;;16.30;99.90;;;;;;5056986;28;35971;-82
2023/09/05 03:54:23;;;;;;;8.43;7.63;;;16.30;99.90;;;;;;5063919;28;38745;-82
2023/09/05 03:56:50;;;;;;;8.18;7.38;;;16.30;99.90;;;;;;5058425;28;38874;-83
2023/09/05 03:59:16;;;;;;;9.23;7.38;;;16.20;99.90;;;;;;5078173;28;36573;-81
2023/09/05 04:01:42;;;;;;;10.52;7.93;;;16.20;99.90;;;;;;5063917;28;36046;-83
2023/09/05 04:04:08;;;;;;;9.52;7.68;;;16.10;99.90;;;;;;5061532;28;39077;-82
2023/09/05 04:06:36;;;;;;;8.18;7.38;;;16.10;99.90;;;;;;5073423;28;38662;-83
2023/09/05 04:09:03;;;;;;;7.95;7.13;;;16.10;99.90;;;;;;5066126;28;37689;-82
2023/09/05 04:11:29;;;;;;;9.02;7.93;;;16.10;99.90;;;;;;5061602;28;37751;-82
2023/09/05 04:13:55;;;;;;;8.50;7.53;;;16.10;99.90;;;;;;5061205;28;38747;-82
2023/09/05 04:16:21;;;;;;;8.80;7.82;;;16.00;99.90;;;;;;5052592;28;38157;-82
2023/09/05 04:18:47;;;;;;;11.50;8.07;;;16.00;99.90;;;;;;5055500;28;38422;-83
2023/09/05 04:21:13;;;;;;;9.65;8.10;;;15.90;99.90;;;;;;5061896;28;36130;-83
2023/09/05 04:23:39;;;;;;;13.18;8.55;;;15.90;99.90;;;;;;5058861;28;39479;-83
2023/09/05 04:26:05;;;;;;;8.82;7.90;;;15.90;99.90;;;;;;5060165;28;38182;-83
2023/09/05 04:28:32;;;;;;;10.15;8.13;;;15.90;99.90;;;;;;5057256;28;37096;-83
2023/09/05 04:31:03;;;;;;;8.52;7.63;;;15.90;99.90;;;;;;5053335;28;37437;-83
2023/09/05 04:33:36;;;;;;;10.63;8.43;;;15.90;99.90;;;;;;5054683;28;48841;-83
2023/09/05 04:36:06;;;;;;;9.05;7.78;;;15.80;99.90;;;;;;5067543;28;36064;-82
2023/09/05 04:38:32;;;;;;;8.20;7.30;;;15.80;99.90;;;;;;5063282;28;36509;-82
2023/09/05 04:41:02;;;;;;;10.68;7.57;;;15.70;99.90;;;;;;5058200;28;36394;-81
2023/09/05 04:43:30;;;;;;;8.45;7.47;;;15.70;99.90;;;;;;5058061;28;49404;-82
2023/09/05 04:45:56;;;;;;;10.95;7.80;;;15.70;99.90;;;;;;5057857;28;38386;-83
2023/09/05 04:48:23;;;;;;;8.00;7.20;;;15.70;99.90;;;;;;5060937;28;36643;-82
2023/09/05 04:50:50;;;;;;;9.38;8.38;;;15.70;99.90;;;;;;5060969;28;38867;-82
2023/09/05 04:53:16;;;;;;;9.20;8.30;;;15.60;99.90;;;;;;5059697;28;38639;-84
2023/09/05 04:55:42;;;;;;;9.07;7.72;;;15.70;99.90;;;;;;5053089;28;38419;-81
2023/09/05 04:58:09;;;;;;;7.45;6.63;;;15.70;99.90;;;;;;5054554;28;36247;-81
2023/09/05 05:00:35;;;;;;;8.13;7.32;;;15.70;99.90;;;;;;5050765;28;36911;-80
2023/09/05 05:03:01;;;;;;;7.97;7.18;;;15.70;99.90;;;;;;5057448;28;38624;-79
2023/09/05 05:05:27;;;;;;;8.55;7.35;;;15.70;99.90;;;;;;5059037;28;47152;-79
2023/09/05 05:07:53;;;;;;;11.20;7.72;;;15.70;99.90;;;;;;5061323;28;36450;-79
2023/09/05 05:10:20;;;;;;;9.90;7.63;;;15.70;99.90;;;;;;5042711;28;37518;-79
2023/09/05 05:12:47;;;;;;;8.30;7.13;;;15.70;99.90;;;;;;5049707;28;38551;-84
2023/09/05 05:15:13;;;;;;;9.13;7.20;;;15.70;99.90;;;;;;5070662;28;37270;-81
2023/09/05 05:17:39;;;;;;;7.65;6.85;;;15.70;99.90;;;;;;5049024;28;37443;-83
2023/09/05 05:20:06;;;;;;;7.78;6.90;;;15.70;99.90;;;;;;5050293;28;37404;-82
2023/09/05 05:22:33;;;;;;;8.98;7.63;;;15.70;99.90;;;;;;5053652;28;37953;-83
2023/09/05 05:24:59;;;;;;;8.98;6.95;;;15.70;99.90;;;;;;5048512;28;38922;-81
2023/09/05 05:27:26;;;;;;;8.07;6.63;;;15.70;99.90;;;;;;5046064;28;37063;-82
2023/09/05 05:29:52;;;;;;;7.47;6.10;;;15.70;99.90;;;;;;5051513;28;37249;-83
2023/09/05 05:32:18;;;;;;;7.63;6.72;;;15.70;99.90;;;;;;5051922;28;39161;-81
2023/09/05 05:34:48;;;;;;;7.07;6.30;;;15.70;99.90;;;;;;5044909;28;38499;-81
2023/09/05 05:37:17;;;;;;;14.50;6.85;;;15.80;99.90;;;;;;5058885;28;38286;-78
2023/09/05 05:39:43;;;;;;;8.27;7.40;;;15.90;99.90;;;;;;5059368;28;37068;-76
2023/09/05 05:42:10;;;;;;;7.40;6.47;;;15.90;99.90;;;;;;5044804;28;38337;-79
2023/09/05 05:44:37;;;;;;;10.15;6.78;;;16.00;99.90;;;;;;5054777;28;38276;-79
2023/09/05 05:47:03;;;;;;;11.30;6.50;;;16.00;99.90;;;;;;5058264;28;38414;-79
2023/09/05 05:49:29;;;;;;;10.57;7.47;;;16.00;99.90;;;;;;5061118;28;37459;-79
2023/09/05 05:51:57;;;;;;;9.15;6.10;;;16.10;99.90;;;;;;5058744;28;37872;-78
2023/09/05 05:54:23;;;;;;;11.63;7.00;;;16.20;99.90;;;;;;5056176;28;39786;-79
2023/09/05 05:56:52;;;;;;;9.90;6.82;;;16.20;99.90;;;;;;5054637;28;36654;-78
2023/09/05 05:59:18;;;;;;;11.52;6.57;;;16.30;99.90;;;;;;5054459;28;36947;-79
2023/09/05 06:01:44;;;;;;;9.95;6.00;;;16.40;99.90;;;;;;5058486;28;38090;-81
2023/09/05 06:04:12;;;;;;;8.98;6.13;;;16.40;99.90;;;;;;5062404;28;36997;-79
2023/09/05 06:06:40;;;;;;;7.72;6.63;;;16.50;99.90;;;;;;5066615;28;37698;-78
2023/09/05 06:09:06;;;;;;;6.65;5.50;;;16.60;99.90;;;;;;5057749;28;35991;-77
2023/09/05 06:11:32;;;;;;;10.18;6.07;;;16.70;99.90;;;;;;5060620;28;38786;-79
2023/09/05 06:13:59;;;;;;;11.45;6.40;;;16.80;99.90;;;;;;5059068;28;38313;-79
2023/09/05 06:16:25;;;;;;;10.32;6.28;;;16.80;99.90;;;;;;5060561;28;36921;-80
2023/09/05 06:18:51;;;;;;;8.00;5.90;;;16.90;99.90;;;;;;5064275;28;36336;-77
2023/09/05 06:21:17;;;;;;;8.70;5.97;;;17.00;99.90;;;;;;5062035;28;38878;-73
2023/09/05 06:23:44;;;;;;;8.60;6.10;;;17.00;99.90;;;;;;5056729;28;38912;-85
2023/09/05 06:26:10;;;;;;;7.93;5.70;;;17.10;99.90;;;;;;5065808;28;36845;-79
2023/09/05 06:28:36;;;;;;;7.57;5.55;;;17.10;99.90;;;;;;5054073;28;36885;-83
2023/09/05 06:31:04;;;;;;;10.85;6.82;;;17.20;99.90;;;;;;5055450;28;38020;-79
2023/09/05 06:33:30;;;;;;;6.32;5.50;;;17.20;99.90;;;;;;5059957;28;48258;-82
2023/09/05 06:35:56;;;;;;;8.85;5.47;;;17.30;99.90;;;;;;5054138;28;37334;-79
2023/09/05 06:38:23;;;;;;;7.88;6.45;;;17.40;99.90;;;;;;5073636;28;35974;-81
2023/09/05 06:40:49;;;;;;;7.55;5.80;;;17.40;99.90;;;;;;5058544;28;38621;-79
2023/09/05 06:43:16;;;;;;;11.20;6.15;;;17.50;99.90;;;;;;5052136;28;38182;-80
2023/09/05 06:45:42;;;;;;;8.32;6.00;;;17.60;99.90;;;;;;5059455;28;37870;-79
2023/09/05 06:48:08;;;;;;;9.35;5.80;;;17.60;99.90;;;;;;5059945;28;38162;-78
2023/09/05 06:50:34;;;;;;;7.53;5.88;;;17.70;99.90;;;;;;5055331;28;38209;-77
2023/09/05 06:53:00;;;;;;;10.15;6.00;;;17.70;99.90;;;;;;5056650;28;38593;-79
2023/09/05 06:55:28;;;;;;;8.45;5.82;;;17.70;99.90;;;;;;5059082;28;38046;-80
2023/09/05 06:57:55;;;;;;;11.75;6.90;;;17.80;99.90;;;;;;5063077;28;36046;-79
2023/09/05 07:00:23;;;;;;;8.23;5.80;;;18.00;99.90;;;;;;5055843;28;40341;-78
2023/09/05 07:02:52;;;;;;;13.30;6.68;;;18.10;99.90;;;;;;5065570;28;48686;-78
2023/09/05 07:05:18;;;;;;;6.70;5.20;;;18.20;99.90;;;;;;5060814;28;36671;-79
2023/09/05 07:07:45;;;;;;;7.22;4.65;;;18.30;99.90;;;;;;5066411;28;37677;-80
2023/09/05 07:10:12;;;;;;;6.68;5.45;;;18.30;99.90;;;;;;5055489;28;38802;-77
2023/09/05 07:12:38;;;;;;;8.73;4.72;;;18.30;99.90;;;;;;5053179;28;38439;-78
2023/09/05 07:15:05;;;;;;;5.25;4.60;;;18.40;99.90;;;;;;5063491;28;37548;-75
2023/09/05 07:17:31;;;;;;;6.45;5.28;;;18.50;99.90;;;;;;5060654;28;36295;-76
2023/09/05 07:19:57;;;;;;;7.45;5.40;;;18.60;99.90;;;;;;5051722;28;39611;-75
2023/09/05 07:22:23;;;;;;;8.80;5.40;;;18.60;99.90;;;;;;5055261;28;37361;-75
2023/09/05 07:24:49;;;;;;;5.20;4.32;;;18.70;99.90;;;;;;5064624;28;37251;-76
2023/09/05 07:27:16;;;;;;;9.80;4.90;;;18.80;99.90;;;;;;5061874;28;37616;-77
2023/09/05 07:29:43;;;;;;;7.78;4.97;;;18.90;99.90;;;;;;5062414;28;39002;-76
2023/09/05 07:32:09;;;;;;;10.13;4.95;;;19.20;99.90;;;;;;5065032;28;37603;-76
2023/09/05 07:34:35;;;;;;;6.90;4.40;;;19.30;99.90;;;;;;5055596;28;37613;-75
2023/09/05 07:37:03;;;;;;;5.40;4.28;;;19.40;99.90;;;;;;5062020;28;37712;-75
2023/09/05 07:39:29;;;;;;;8.38;4.65;;;19.50;99.90;;;;;;5049439;28;38521;-76
2023/09/05 07:41:55;;;;;;;6.00;4.38;;;19.60;99.90;;;;;;5062495;28;38760;-77
2023/09/05 07:44:21;;;;;;;8.05;4.50;;;19.70;99.90;;;;;;5072386;28;37978;-79
2023/09/05 07:46:47;;;;;;;7.88;4.55;;;19.80;99.90;;;;;;5061914;28;36512;-78
2023/09/05 07:49:15;;;;;;;5.63;4.57;;;20.00;99.90;;;;;;5061803;28;37903;-77
2023/09/05 07:51:42;;;;;;;8.05;4.55;;;20.00;99.90;;;;;;5067529;28;38217;-76
2023/09/05 07:54:10;;;;;;;5.10;4.38;;;20.00;99.90;;;;;;5068149;28;37831;-76
2023/09/05 07:56:37;;;;;;;5.00;4.50;;;20.10;99.90;;;;;;5058262;28;37097;-77
2023/09/05 07:59:03;;;;;;;5.93;4.53;;;20.20;99.90;;;;;;5055800;28;37770;-76
2023/09/05 08:01:29;;;;;;;6.47;4.05;;;20.40;99.90;;;;;;5062084;28;37583;-76
2023/09/05 08:03:56;;;;;;;7.38;4.00;;;20.50;99.90;;;;;;5067958;28;37420;-76
2023/09/05 08:06:22;;;;;;;5.25;4.18;;;20.70;99.90;;;;;;5057502;28;37119;-77
2023/09/05 08:08:48;;;;;;;4.82;4.05;;;20.80;99.90;;;;;;5063267;28;38077;-78
2023/09/05 08:11:14;;;;;;;7.88;4.38;;;21.00;99.90;;;;;;5067941;28;37379;-77
2023/09/05 08:13:40;;;;;;;5.38;4.10;;;21.10;99.90;;;;;;5059985;28;37374;-77
2023/09/05 08:16:07;;;;;;;5.75;3.78;;;21.20;99.90;;;;;;5062237;28;36837;-77
2023/09/05 08:18:33;;;;;;;5.28;3.80;;;21.30;99.90;;;;;;5058320;28;39388;-77
2023/09/05 08:20:59;;;;;;;5.95;3.75;;;21.50;99.90;;;;;;5067122;28;39189;-78
2023/09/05 08:23:26;;;;;;;5.45;3.75;;;21.80;99.90;;;;;;5069172;28;37366;-77
2023/09/05 08:25:56;;;;;;;6.38;3.70;;;22.00;99.90;;;;;;5067379;28;37077;-77
2023/09/05 08:28:22;;;;;;;6.43;3.88;;;22.20;99.80;;;;;;5058366;28;37731;-77
2023/09/05 08:30:48;;;;;;;5.32;3.53;;;22.40;95.00;;;;;;5064873;28;37293;-78
2023/09/05 08:33:14;;;;;;;4.20;3.40;;;22.60;99.90;;;;;;5064969;28;37934;-80
2023/09/05 08:35:41;;;;;;;8.45;3.78;;;22.80;90.20;;;;;;5053536;28;36940;-78
2023/09/05 08:38:07;;;;;;;6.63;3.15;;;22.80;70.60;;;;;;5069494;28;40011;-78
2023/09/05 08:40:34;;;;;;;4.50;3.25;;;23.00;94.40;;;;;;5069658;28;39305;-78
2023/09/05 08:43:01;;;;;;;6.70;3.53;;;23.00;73.60;;;;;;5060097;28;36390;-78
2023/09/05 08:45:29;;;;;;;3.83;3.40;;;23.20;98.90;;;;;;5065259;28;47480;-78
2023/09/05 08:47:56;;;;;;;5.90;3.22;;;23.30;83.00;;;;;;5068443;28;38750;-78
2023/09/05 08:50:25;;;;;;;6.00;3.10;;;23.40;78.80;;;;;;5068517;28;37971;-78
2023/09/05 08:52:53;;;;;;;4.35;3.22;;;23.50;58.60;;;;;;5066547;28;36649;-79
2023/09/05 08:55:21;;;;;;;7.53;3.20;;;23.50;97.00;;;;;;5053830;28;36427;-79
2023/09/05 08:57:49;;;;;;;7.75;3.33;;;23.70;94.40;;;;;;5064232;28;38703;-79
2023/09/05 09:00:21;;;;;;;6.03;3.22;;;23.80;87.90;;;;;;5062884;28;34992;-78
2023/09/05 09:02:47;;;;;;;6.00;3.65;;;23.70;52.00;;;;;;5061029;28;48251;-79
2023/09/05 09:05:13;;;;;;;4.28;3.10;;;23.80;60.70;;;;;;5052100;28;37205;-79
2023/09/05 09:07:40;;;;;;;3.90;3.17;;;24.00;87.30;;;;;;5068502;28;40126;-79
2023/09/05 09:10:20;;;;;;;6.85;3.25;;;24.10;38.90;;;;;;5067382;28;38701;-78
2023/09/05 09:12:54;;;;;;;5.53;3.33;;;24.10;37.90;;;;;;5062970;28;38148;-79
2023/09/05 09:15:25;;;;;;;6.88;3.13;;;24.10;42.00;;;;;;5067108;28;37443;-79
2023/09/05 09:17:52;;;;;;;6.88;3.35;;;24.20;81.30;;;;;;5068723;28;38652;-79
2023/09/05 09:20:19;;;;;;;6.60;2.88;;;24.20;48.70;;;;;;5071331;28;39334;-79
2023/09/05 09:22:50;;;;;;;5.75;3.30;;;24.40;54.20;;;;;;5084247;28;36905;-79
2023/09/05 09:25:20;;;;;;;5.68;2.90;;;24.50;59.60;;;;;;5065286;28;37187;-79
2023/09/05 09:27:51;;;;;;;6.60;3.58;;;24.80;82.30;;;;;;5070613;28;37516;-79
2023/09/05 09:30:23;;;;;;;4.82;2.97;;;24.90;41.30;;;;;;5064168;28;38626;-79
2023/09/05 09:32:53;;;;;;;6.80;2.65;;;25.10;44.90;;;;;;5072171;28;37200;-79
2023/09/05 09:35:19;;;;;;;5.55;3.08;;;25.40;55.20;;;;;;5057574;28;37531;-79
2023/09/05 09:37:49;;;;;;;4.70;3.05;;;25.50;23.60;;;;;;5067931;28;37666;-79
2023/09/05 09:40:16;;;;;;;4.30;2.40;;;25.50;16.80;;;;;;5063247;28;38105;-79
2023/09/05 09:42:49;;;;;;;4.45;2.63;;;25.60;40.40;;;;;;5064593;28;36868;-79
2023/09/05 09:45:19;;;;;;;5.65;2.88;;;25.60;38.50;;;;;;5065067;28;36388;-79
2023/09/05 09:47:53;;;;;;;4.53;2.47;;;25.80;22.10;;;;;;5064657;28;38702;-79
2023/09/05 09:50:20;;;;;;;4.45;2.20;;;25.80;8.40;;;;;;5059481;28;37666;-77
2023/09/05 09:52:50;;;;;;;4.95;2.55;;;25.80;1.00;;;;;;5074899;28;37966;-77
2023/09/05 09:55:18;;;;;;;4.40;2.97;;;25.80;1.30;;;;;;5069690;28;37170;-77
2023/09/05 09:58:01;;;;;;;4.70;2.85;;;26.00;27.60;;;;;;5069463;28;38136;-77
2023/09/05 10:00:32;;;;;;;4.88;2.28;;;26.20;34.70;;;;;;5069304;28;47526;-77
2023/09/05 10:03:08;;;;;;;4.63;2.50;;;26.40;23.00;;;;;;5064776;28;37741;-77
2023/09/05 10:05:36;;;;;;;5.75;2.20;;;26.50;1.00;;;;;;5056265;28;47388;-77
2023/09/05 10:08:03;;;;;;;6.00;2.80;;;26.50;29.50;;;;;;5057381;28;37783;-76
2023/09/05 10:10:30;;;;;;;3.15;2.28;;;26.40;1.00;;;;;;5064944;28;37766;-78
2023/09/05 10:12:58;;;;;;;4.97;2.58;;;26.40;5.00;;;;;;5063644;28;36680;-78
2023/09/05 10:15:25;;;;;;;3.45;2.03;;;26.60;12.30;;;;;;5069281;28;36941;-78
2023/09/05 10:17:54;;;;;;;3.30;2.60;;;26.70;11.10;;;;;;5063329;28;37710;-77
2023/09/05 10:20:21;;;;;;;4.10;2.20;;;27.00;41.30;;;;;;5068499;28;38151;-78
2023/09/05 10:22:47;;;;;;;6.85;2.10;;;27.10;1.00;;;;;;5070044;28;36839;-78
2023/09/05 10:25:15;;;;;;;2.72;2.15;;;27.20;13.40;;;;;;5066618;28;37195;-77
2023/09/05 10:27:42;;;;;;;2.53;1.85;;;27.20;1.00;;;;;;5060499;28;38286;-78
2023/09/05 10:30:10;;;;;;;6.30;2.20;;;27.40;1.00;;;;;;5074822;28;37251;-78
2023/09/05 10:32:41;;;;;;;5.22;2.28;;;27.40;1.00;;;;;;5058402;28;36920;-80
2023/09/05 10:35:07;;;;;;;3.60;2.10;;;27.80;27.40;;;;;;5065863;28;36824;-78
2023/09/05 10:37:33;;;;;;;2.55;1.80;;;27.90;1.00;;;;;;5068216;28;39911;-79
2023/09/05 10:40:07;;;;;;;4.15;2.22;;;28.20;23.60;;;;;;5060252;28;38244;-77
2023/09/05 10:42:36;;;;;;;3.55;1.83;;;28.40;1.00;;;;;;5055043;28;47358;-78
2023/09/05 10:45:32;;;;;;;5.63;2.42;;;28.40;1.00;;;;;;5058354;28;37913;-79
2023/09/05 10:48:15;;;;;;;3.72;2.17;;;28.70;1.00;;;;;;5065051;28;48961;-79
2023/09/05 10:51:11;;;;;;;6.72;2.17;;;28.80;1.00;;;;;;5055132;28;47268;-79
2023/09/05 10:53:40;;;;;;;4.80;2.40;;;28.80;1.00;;;;;;5050784;28;47389;-78
2023/09/05 10:56:39;;;;;;;4.45;2.33;;;28.70;1.00;;;;;;5063640;28;37351;-78
2023/09/05 10:59:08;;;;;;;4.72;2.30;;;28.60;1.00;;;;;;5071759;28;37640;-76
2023/09/05 11:01:44;;;;;;;4.95;2.55;;;28.90;1.00;;;;;;5056030;28;37626;-76
2023/09/05 11:04:18;;;;;;;3.15;2.05;;;28.90;1.00;;;;;;5063159;28;38063;-77
2023/09/05 11:07:01;;;;;;;3.38;1.92;;;29.00;1.00;;;;;;5067200;28;36109;-77
2023/09/05 11:09:27;;;;;;;2.63;1.83;;;29.20;1.00;;;;;;5073588;28;47096;-77
2023/09/05 11:11:54;;;;;;;2.35;1.98;;;29.20;1.00;;;;;;5064137;28;39344;-77
2023/09/05 11:14:31;;;;;;;4.13;2.08;;;29.30;99.90;;;;;;5066103;28;38165;-76
2023/09/05 11:16:57;;;;;;;4.75;2.08;;;29.40;1.00;;;;;;5054170;28;36974;-77
2023/09/05 11:19:31;;;;;;;4.95;2.38;;;29.10;1.00;;;;;;5060145;28;39233;-77
2023/09/05 11:22:15;;;;;;;4.18;2.40;;;29.20;1.00;;;;;;5056191;28;38664;-77
2023/09/05 11:24:49;;;;;;;4.85;2.35;;;29.30;1.00;;;;;;5060244;28;48793;-77
2023/09/05 11:27:18;;;;;;;4.38;2.15;;;29.10;1.00;;;;;;5057469;28;37897;-77
2023/09/05 11:29:45;;;;;;;3.40;2.10;;;29.00;1.00;;;;;;5060898;28;37852;-77
2023/09/05 11:32:14;;;;;;;4.95;1.88;;;28.90;99.90;;;;;;5057367;28;37210;-78
2023/09/05 11:34:45;;;;;;;3.30;1.75;;;29.10;1.00;;;;;;5056355;28;39326;-79
2023/09/05 11:37:16;;;;;;;2.97;1.98;;;29.20;1.00;;;;;;5051149;28;37592;-79
2023/09/05 11:39:42;;;;;;;3.67;2.07;;;29.10;1.00;;;;;;5060913;28;39019;-79
2023/09/05 11:42:23;;;;;;;5.57;1.90;;;28.90;99.90;;;;;;5057703;28;40118;-78
2023/09/05 11:44:50;;;;;;;4.50;1.60;;;28.90;1.00;;;;;;5056270;28;38124;-79
2023/09/05 11:47:17;;;;;;;2.63;2.00;;;29.00;1.00;;;;;;5057890;28;37858;-79
2023/09/05 11:49:45;;;;;;;3.40;1.88;;;29.10;99.90;;;;;;5061058;28;38352;-79
2023/09/05 11:52:12;;;;;;;4.40;2.22;;;28.90;1.00;;;;;;5055792;28;37691;-79
2023/09/05 11:54:39;;;;;;;3.92;1.85;;;28.90;93.60;;;;;;5061593;28;39759;-80
2023/09/05 11:57:07;;;;;;;3.03;1.88;;;28.80;1.00;;;;;;5059899;28;36798;-79
2023/09/05 11:59:34;;;;;;;3.65;2.03;;;28.80;99.90;;;;;;5063341;28;38695;-80
2023/09/05 12:02:07;;;;;;;2.83;1.70;;;29.10;1.00;;;;;;5059981;28;38236;-81
2023/09/05 12:04:34;;;;;;;6.53;2.10;;;29.40;1.00;;;;;;5055464;28;48637;-82
2023/09/05 12:07:03;;;;;;;7.15;1.70;;;29.70;1.00;;;;;;5054242;28;37335;-85
2023/09/05 12:09:29;;;;;;;3.65;2.42;;;29.70;99.90;;;;;;5064342;28;47360;-80
2023/09/05 12:12:13;;;;;;;3.28;1.73;;;29.70;1.00;;;;;;5052094;28;38100;-85
2023/09/05 12:14:56;;;;;;;4.50;2.08;;;29.80;1.00;;;;;;5043511;28;47771;-84
2023/09/05 12:17:25;;;;;;;2.10;1.50;;;29.60;99.90;;;;;;5060035;28;37452;-85
2023/09/05 12:19:53;;;;;;;3.08;1.75;;;29.70;1.00;;;;;;5052504;28;37649;-84
2023/09/05 12:22:30;;;;;;;4.05;1.50;;;29.70;1.00;;;;;;5053256;28;38690;-81
2023/09/05 12:25:06;;;;;;;2.80;1.73;;;29.60;1.00;;;;;;5054514;28;38145;-81
2023/09/05 12:27:32;;;;;;;2.47;1.73;;;29.90;99.90;;;;;;5058395;28;47455;-82
2023/09/05 12:29:58;;;;;;;2.88;1.70;;;29.90;99.90;;;;;;5058170;28;37959;-82
2023/09/05 12:32:26;;;;;;;2.25;1.50;;;29.70;51.50;;;;;;5059467;28;36767;-79
2023/09/05 12:34:55;;;;;;;3.72;1.75;;;29.60;99.90;;;;;;5054616;28;38013;-80
2023/09/05 12:37:22;;;;;;;2.55;1.30;;;29.50;1.00;;;;;;5049460;28;36659;-79
2023/09/05 12:39:50;;;;;;;3.63;1.60;;;29.70;99.90;;;;;;5054470;28;38200;-78
2023/09/05 12:42:17;;;;;;;3.13;1.58;;;29.70;99.90;;;;;;5053632;28;38062;-79
2023/09/05 12:44:43;;;;;;;2.60;1.58;;;29.70;1.00;;;;;;5073754;28;36620;-79
2023/09/05 12:47:09;;;;;;;1.90;1.65;;;29.60;1.00;;;;;;5047233;28;36603;-81
2023/09/05 12:49:38;;;;;;;5.30;1.75;;;29.50;1.00;;;;;;5054793;28;37944;-81
2023/09/05 12:52:07;;;;;;;5.30;1.60;;;29.50;1.00;;;;;;5054848;28;37545;-81
2023/09/05 12:54:33;;;;;;;5.50;1.80;;;29.50;1.00;;;;;;5055329;28;37500;-82